sensor_id;sensor_type;location;lat;lon;timestamp;pressure;altitude;pressure_sealevel;temperature;humidity
63088;BME280;49173;43.164;27.786;2023-06-05T00:00:59;101009.41;;;16.23;62.65
63088;BME280;49173;43.164;27.786;2023-06-05T00:03:25;101008.28;;;16.12;63.10
63088;BME280;49173;43.164;27.786;2023-06-05T00:05:55;101010.81;;;16.15;62.65
63088;BME280;49173;43.164;27.786;2023-06-05T00:08:23;101009.72;;;16.18;62.38
63088;BME280;49173;43.164;27.786;2023-06-05T00:10:49;101014.03;;;16.20;61.99
63088;BME280;49173;43.164;27.786;2023-06-05T00:13:16;101003.66;;;16.14;62.05
63088;BME280;49173;43.164;27.786;2023-06-05T00:15:42;101007.31;;;16.13;62.42
63088;BME280;49173;43.164;27.786;2023-06-05T00:18:11;101003.28;;;16.06;62.83
63088;BME280;49173;43.164;27.786;2023-06-05T00:20:40;101008.63;;;16.08;63.11
63088;BME280;49173;43.164;27.786;2023-06-05T00:23:06;101013.34;;;16.04;63.35
63088;BME280;49173;43.164;27.786;2023-06-05T00:25:32;101004.25;;;16.05;63.22
63088;BME280;49173;43.164;27.786;2023-06-05T00:27:57;101002.34;;;16.07;63.32
63088;BME280;49173;43.164;27.786;2023-06-05T00:30:23;101006.63;;;15.97;63.69
63088;BME280;49173;43.164;27.786;2023-06-05T00:32:51;100998.91;;;15.91;63.32
63088;BME280;49173;43.164;27.786;2023-06-05T00:35:17;100999.31;;;15.85;63.75
63088;BME280;49173;43.164;27.786;2023-06-05T00:37:43;101002.03;;;15.85;63.63
63088;BME280;49173;43.164;27.786;2023-06-05T00:40:12;101004.38;;;15.77;63.69
63088;BME280;49173;43.164;27.786;2023-06-05T00:42:38;100993.19;;;15.69;64.40
63088;BME280;49173;43.164;27.786;2023-06-05T00:45:04;100986.63;;;15.73;64.06
63088;BME280;49173;43.164;27.786;2023-06-05T00:47:30;100990.50;;;15.69;64.61
63088;BME280;49173;43.164;27.786;2023-06-05T00:50:01;100993.00;;;15.72;63.85
63088;BME280;49173;43.164;27.786;2023-06-05T00:52:27;100987.66;;;15.70;63.92
63088;BME280;49173;43.164;27.786;2023-06-05T00:54:53;100985.66;;;15.59;63.88
63088;BME280;49173;43.164;27.786;2023-06-05T00:57:20;100975.88;;;15.57;64.12
63088;BME280;49173;43.164;27.786;2023-06-05T00:59:50;100988.38;;;15.59;63.94
63088;BME280;49173;43.164;27.786;2023-06-05T01:02:16;100982.84;;;15.61;63.84
63088;BME280;49173;43.164;27.786;2023-06-05T01:04:41;100978.41;;;15.60;63.84
63088;BME280;49173;43.164;27.786;2023-06-05T01:07:15;100978.69;;;15.55;64.59
63088;BME280;49173;43.164;27.786;2023-06-05T01:09:41;100982.28;;;15.56;64.12
63088;BME280;49173;43.164;27.786;2023-06-05T01:15:07;100980.84;;;15.50;64.18
63088;BME280;49173;43.164;27.786;2023-06-05T01:17:36;100980.94;;;15.49;64.11
63088;BME280;49173;43.164;27.786;2023-06-05T01:20:03;100968.69;;;15.43;64.27
63088;BME280;49173;43.164;27.786;2023-06-05T01:22:33;100977.13;;;15.38;64.82
63088;BME280;49173;43.164;27.786;2023-06-05T01:25:08;100980.22;;;15.32;65.25
63088;BME280;49173;43.164;27.786;2023-06-05T01:30:33;100986.31;;;15.22;65.55
63088;BME280;49173;43.164;27.786;2023-06-05T01:33:11;100988.06;;;15.23;65.18
63088;BME280;49173;43.164;27.786;2023-06-05T01:35:40;100996.06;;;15.24;65.51
63088;BME280;49173;43.164;27.786;2023-06-05T01:38:07;100996.19;;;15.23;65.67
63088;BME280;49173;43.164;27.786;2023-06-05T01:40:35;100998.88;;;15.23;65.55
63088;BME280;49173;43.164;27.786;2023-06-05T01:43:03;100996.34;;;15.20;65.50
63088;BME280;49173;43.164;27.786;2023-06-05T01:45:31;101001.19;;;15.15;65.58
63088;BME280;49173;43.164;27.786;2023-06-05T01:47:58;101002.66;;;15.06;66.37
63088;BME280;49173;43.164;27.786;2023-06-05T01:50:23;101003.50;;;14.92;66.35
63088;BME280;49173;43.164;27.786;2023-06-05T01:52:50;101009.28;;;14.86;66.83
63088;BME280;49173;43.164;27.786;2023-06-05T01:55:19;101006.41;;;14.89;66.85
63088;BME280;49173;43.164;27.786;2023-06-05T01:57:50;100997.56;;;14.87;66.55
63088;BME280;49173;43.164;27.786;2023-06-05T02:00:16;101003.59;;;14.76;66.90
63088;BME280;49173;43.164;27.786;2023-06-05T02:02:43;100998.09;;;14.78;67.02
63088;BME280;49173;43.164;27.786;2023-06-05T02:05:10;100998.91;;;14.80;66.69
63088;BME280;49173;43.164;27.786;2023-06-05T02:07:39;100992.69;;;14.78;66.60
63088;BME280;49173;43.164;27.786;2023-06-05T02:10:07;100989.44;;;14.87;66.39
63088;BME280;49173;43.164;27.786;2023-06-05T02:12:34;100995.63;;;14.89;66.37
63088;BME280;49173;43.164;27.786;2023-06-05T02:15:09;100987.28;;;14.92;65.69
63088;BME280;49173;43.164;27.786;2023-06-05T02:17:42;100990.38;;;14.86;65.69
63088;BME280;49173;43.164;27.786;2023-06-05T02:20:13;100995.78;;;14.86;65.83
63088;BME280;49173;43.164;27.786;2023-06-05T02:22:41;100978.22;;;14.79;65.99
63088;BME280;49173;43.164;27.786;2023-06-05T02:25:10;100984.97;;;14.72;66.44
63088;BME280;49173;43.164;27.786;2023-06-05T02:27:37;100983.34;;;14.69;66.49
63088;BME280;49173;43.164;27.786;2023-06-05T02:30:03;100990.19;;;14.75;66.37
63088;BME280;49173;43.164;27.786;2023-06-05T02:32:29;100997.13;;;14.65;66.52
63088;BME280;49173;43.164;27.786;2023-06-05T02:34:57;100994.91;;;14.71;66.48
63088;BME280;49173;43.164;27.786;2023-06-05T02:37:24;100997.13;;;14.65;66.92
63088;BME280;49173;43.164;27.786;2023-06-05T02:39:50;100991.44;;;14.69;66.56
63088;BME280;49173;43.164;27.786;2023-06-05T02:42:16;100996.09;;;14.67;66.77
63088;BME280;49173;43.164;27.786;2023-06-05T02:44:44;100998.47;;;14.57;67.13
63088;BME280;49173;43.164;27.786;2023-06-05T02:47:11;101004.09;;;14.69;66.70
63088;BME280;49173;43.164;27.786;2023-06-05T02:49:37;101013.72;;;14.73;66.45
63088;BME280;49173;43.164;27.786;2023-06-05T02:52:03;101013.72;;;14.73;66.35
63088;BME280;49173;43.164;27.786;2023-06-05T02:54:29;101013.34;;;14.79;65.97
63088;BME280;49173;43.164;27.786;2023-06-05T02:56:58;101008.81;;;14.79;66.28
63088;BME280;49173;43.164;27.786;2023-06-05T02:59:26;101010.16;;;14.72;66.36
63088;BME280;49173;43.164;27.786;2023-06-05T03:01:53;101012.78;;;14.74;66.22
63088;BME280;49173;43.164;27.786;2023-06-05T03:04:22;101015.19;;;14.78;66.45
63088;BME280;49173;43.164;27.786;2023-06-05T03:06:50;101005.06;;;14.82;66.70
63088;BME280;49173;43.164;27.786;2023-06-05T03:09:20;101021.19;;;14.83;66.91
63088;BME280;49173;43.164;27.786;2023-06-05T03:11:47;101027.34;;;14.86;67.04
63088;BME280;49173;43.164;27.786;2023-06-05T03:14:13;101025.25;;;14.91;67.12
63088;BME280;49173;43.164;27.786;2023-06-05T03:16:39;101018.56;;;14.82;67.63
63088;BME280;49173;43.164;27.786;2023-06-05T03:19:10;101026.09;;;14.91;67.07
63088;BME280;49173;43.164;27.786;2023-06-05T03:21:38;101022.06;;;14.98;66.91
63088;BME280;49173;43.164;27.786;2023-06-05T03:24:11;101025.53;;;15.00;66.87
63088;BME280;49173;43.164;27.786;2023-06-05T03:26:41;101029.88;;;15.03;66.96
63088;BME280;49173;43.164;27.786;2023-06-05T03:29:07;101031.13;;;15.11;67.09
63088;BME280;49173;43.164;27.786;2023-06-05T03:31:34;101032.47;;;15.19;66.70
63088;BME280;49173;43.164;27.786;2023-06-05T03:34:02;101030.16;;;15.27;65.98
63088;BME280;49173;43.164;27.786;2023-06-05T03:36:30;101042.13;;;15.37;65.67
63088;BME280;49173;43.164;27.786;2023-06-05T03:38:58;101034.56;;;15.42;66.36
63088;BME280;49173;43.164;27.786;2023-06-05T03:41:24;101038.94;;;15.45;66.51
63088;BME280;49173;43.164;27.786;2023-06-05T03:43:51;101026.94;;;15.49;65.86
63088;BME280;49173;43.164;27.786;2023-06-05T03:46:19;101032.81;;;15.55;65.83
63088;BME280;49173;43.164;27.786;2023-06-05T03:48:46;101028.59;;;15.65;65.63
63088;BME280;49173;43.164;27.786;2023-06-05T03:51:12;101020.72;;;15.75;65.71
63088;BME280;49173;43.164;27.786;2023-06-05T03:53:39;101023.59;;;15.86;66.36
63088;BME280;49173;43.164;27.786;2023-06-05T03:56:11;101023.72;;;15.98;66.24
63088;BME280;49173;43.164;27.786;2023-06-05T03:58:41;101028.03;;;16.14;66.31
63088;BME280;49173;43.164;27.786;2023-06-05T04:01:07;101029.88;;;16.27;65.52
63088;BME280;49173;43.164;27.786;2023-06-05T04:03:34;101023.53;;;16.40;65.26
63088;BME280;49173;43.164;27.786;2023-06-05T04:06:03;101026.06;;;16.56;64.84
63088;BME280;49173;43.164;27.786;2023-06-05T04:08:30;101031.94;;;16.75;63.71
63088;BME280;49173;43.164;27.786;2023-06-05T04:10:56;101020.00;;;16.91;62.45
63088;BME280;49173;43.164;27.786;2023-06-05T04:13:22;101028.69;;;17.09;62.30
63088;BME280;49173;43.164;27.786;2023-06-05T04:15:47;101027.59;;;17.24;61.35
63088;BME280;49173;43.164;27.786;2023-06-05T04:18:14;101029.97;;;17.41;60.69
63088;BME280;49173;43.164;27.786;2023-06-05T04:20:40;101032.53;;;17.55;59.89
63088;BME280;49173;43.164;27.786;2023-06-05T04:23:09;101033.16;;;17.72;59.53
63088;BME280;49173;43.164;27.786;2023-06-05T04:25:35;101027.81;;;17.83;59.28
63088;BME280;49173;43.164;27.786;2023-06-05T04:28:01;101039.47;;;17.96;58.92
63088;BME280;49173;43.164;27.786;2023-06-05T04:30:26;101041.91;;;18.12;58.26
63088;BME280;49173;43.164;27.786;2023-06-05T04:32:55;101043.34;;;18.29;58.20
63088;BME280;49173;43.164;27.786;2023-06-05T04:35:21;101040.75;;;18.38;57.49
63088;BME280;49173;43.164;27.786;2023-06-05T04:37:47;101047.13;;;18.50;57.54
63088;BME280;49173;43.164;27.786;2023-06-05T04:40:15;101053.56;;;18.60;55.96
63088;BME280;49173;43.164;27.786;2023-06-05T04:42:42;101049.31;;;18.69;55.66
63088;BME280;49173;43.164;27.786;2023-06-05T04:45:08;101058.00;;;18.85;56.66
63088;BME280;49173;43.164;27.786;2023-06-05T04:47:34;101055.19;;;18.98;56.33
63088;BME280;49173;43.164;27.786;2023-06-05T04:50:04;101061.25;;;19.13;56.57
63088;BME280;49173;43.164;27.786;2023-06-05T04:52:34;101062.88;;;19.27;56.25
63088;BME280;49173;43.164;27.786;2023-06-05T04:55:20;101050.88;;;19.40;56.36
63088;BME280;49173;43.164;27.786;2023-06-05T04:57:46;101058.06;;;19.53;56.83
63088;BME280;49173;43.164;27.786;2023-06-05T05:00:17;101059.31;;;19.60;56.05
63088;BME280;49173;43.164;27.786;2023-06-05T05:02:42;101056.06;;;19.66;55.33
63088;BME280;49173;43.164;27.786;2023-06-05T05:05:08;101065.22;;;19.76;55.38
63088;BME280;49173;43.164;27.786;2023-06-05T05:07:47;101066.19;;;19.86;54.68
63088;BME280;49173;43.164;27.786;2023-06-05T05:10:13;101070.50;;;20.00;54.13
63088;BME280;49173;43.164;27.786;2023-06-05T05:12:52;101070.34;;;20.13;54.12
63088;BME280;49173;43.164;27.786;2023-06-05T05:15:24;101064.09;;;20.22;53.46
63088;BME280;49173;43.164;27.786;2023-06-05T05:17:56;101073.38;;;20.30;54.26
63088;BME280;49173;43.164;27.786;2023-06-05T05:20:26;101077.06;;;20.41;54.51
63088;BME280;49173;43.164;27.786;2023-06-05T05:23:07;101061.34;;;20.44;52.99
63088;BME280;49173;43.164;27.786;2023-06-05T05:25:39;101067.00;;;20.52;53.11
63088;BME280;49173;43.164;27.786;2023-06-05T05:28:06;101075.13;;;20.64;52.89
63088;BME280;49173;43.164;27.786;2023-06-05T05:30:42;101074.06;;;20.76;52.57
63088;BME280;49173;43.164;27.786;2023-06-05T05:33:12;101073.72;;;20.90;53.24
63088;BME280;49173;43.164;27.786;2023-06-05T05:35:44;101070.19;;;20.99;52.86
63088;BME280;49173;43.164;27.786;2023-06-05T05:38:15;101070.69;;;21.14;49.60
63088;BME280;49173;43.164;27.786;2023-06-05T05:40:55;101068.19;;;21.22;48.97
63088;BME280;49173;43.164;27.786;2023-06-05T05:43:24;101066.78;;;21.28;49.62
63088;BME280;49173;43.164;27.786;2023-06-05T05:46:06;101067.84;;;21.36;49.08
63088;BME280;49173;43.164;27.786;2023-06-05T05:48:39;101076.81;;;21.48;48.26
63088;BME280;49173;43.164;27.786;2023-06-05T05:51:19;101071.97;;;21.61;48.47
63088;BME280;49173;43.164;27.786;2023-06-05T05:53:46;101069.00;;;21.74;49.13
63088;BME280;49173;43.164;27.786;2023-06-05T05:56:21;101074.94;;;21.89;49.68
63088;BME280;49173;43.164;27.786;2023-06-05T05:58:51;101073.97;;;22.00;48.60
63088;BME280;49173;43.164;27.786;2023-06-05T06:01:17;101067.03;;;22.05;47.86
63088;BME280;49173;43.164;27.786;2023-06-05T06:03:44;101067.97;;;22.15;47.11
63088;BME280;49173;43.164;27.786;2023-06-05T06:06:22;101059.19;;;22.22;46.74
63088;BME280;49173;43.164;27.786;2023-06-05T06:08:52;101065.09;;;22.27;45.62
63088;BME280;49173;43.164;27.786;2023-06-05T06:11:21;101055.59;;;22.31;45.73
63088;BME280;49173;43.164;27.786;2023-06-05T06:13:48;101059.06;;;22.33;45.50
63088;BME280;49173;43.164;27.786;2023-06-05T06:16:17;101055.75;;;22.39;44.72
63088;BME280;49173;43.164;27.786;2023-06-05T06:18:46;101053.31;;;22.45;44.63
63088;BME280;49173;43.164;27.786;2023-06-05T06:21:18;101058.78;;;22.45;44.45
63088;BME280;49173;43.164;27.786;2023-06-05T06:23:51;101048.25;;;22.41;43.07
63088;BME280;49173;43.164;27.786;2023-06-05T06:26:18;101049.16;;;22.41;43.60
63088;BME280;49173;43.164;27.786;2023-06-05T06:28:50;101051.72;;;22.43;43.23
63088;BME280;49173;43.164;27.786;2023-06-05T06:31:19;101051.28;;;22.47;43.18
63088;BME280;49173;43.164;27.786;2023-06-05T06:33:52;101045.69;;;22.49;41.53
63088;BME280;49173;43.164;27.786;2023-06-05T06:36:21;101052.31;;;22.56;42.48
63088;BME280;49173;43.164;27.786;2023-06-05T06:38:48;101056.75;;;22.57;42.07
63088;BME280;49173;43.164;27.786;2023-06-05T06:41:17;101050.44;;;22.57;41.33
63088;BME280;49173;43.164;27.786;2023-06-05T06:43:48;101063.09;;;22.58;41.10
63088;BME280;49173;43.164;27.786;2023-06-05T06:46:27;101062.22;;;22.67;40.16
63088;BME280;49173;43.164;27.786;2023-06-05T06:49:10;101057.91;;;22.64;40.34
63088;BME280;49173;43.164;27.786;2023-06-05T06:51:42;101065.25;;;22.64;39.52
63088;BME280;49173;43.164;27.786;2023-06-05T06:54:14;101063.38;;;22.64;39.31
63088;BME280;49173;43.164;27.786;2023-06-05T06:56:43;101066.56;;;22.50;40.27
63088;BME280;49173;43.164;27.786;2023-06-05T06:59:16;101062.81;;;22.70;39.81
63088;BME280;49173;43.164;27.786;2023-06-05T07:02:14;101059.63;;;22.85;40.01
63088;BME280;49173;43.164;27.786;2023-06-05T07:04:47;101072.28;;;22.95;38.98
63088;BME280;49173;43.164;27.786;2023-06-05T07:07:16;101077.19;;;23.01;37.53
63088;BME280;49173;43.164;27.786;2023-06-05T07:09:49;101072.00;;;22.89;37.02
63088;BME280;49173;43.164;27.786;2023-06-05T07:12:27;101067.53;;;22.97;39.00
63088;BME280;49173;43.164;27.786;2023-06-05T07:14:56;101060.31;;;23.06;37.11
63088;BME280;49173;43.164;27.786;2023-06-05T07:17:25;101062.13;;;23.25;37.49
63088;BME280;49173;43.164;27.786;2023-06-05T07:19:58;101070.00;;;23.38;38.17
63088;BME280;49173;43.164;27.786;2023-06-05T07:22:28;101078.16;;;23.57;37.77
63088;BME280;49173;43.164;27.786;2023-06-05T07:24:59;101066.19;;;23.58;36.35
63088;BME280;49173;43.164;27.786;2023-06-05T07:27:34;101064.91;;;23.52;38.01
63088;BME280;49173;43.164;27.786;2023-06-05T07:30:10;101062.31;;;23.51;38.10
63088;BME280;49173;43.164;27.786;2023-06-05T07:32:41;101054.19;;;23.59;36.79
63088;BME280;49173;43.164;27.786;2023-06-05T07:35:11;101068.75;;;23.60;36.11
63088;BME280;49173;43.164;27.786;2023-06-05T07:37:43;101049.16;;;23.64;34.96
63088;BME280;49173;43.164;27.786;2023-06-05T07:40:15;101053.09;;;23.79;35.43
63088;BME280;49173;43.164;27.786;2023-06-05T07:42:48;101058.69;;;23.88;36.24
63088;BME280;49173;43.164;27.786;2023-06-05T07:45:20;101050.47;;;23.88;35.77
63088;BME280;49173;43.164;27.786;2023-06-05T07:47:59;101058.41;;;23.91;36.30
63088;BME280;49173;43.164;27.786;2023-06-05T07:50:30;101058.69;;;23.88;35.35
63088;BME280;49173;43.164;27.786;2023-06-05T07:53:04;101059.78;;;23.95;35.40
63088;BME280;49173;43.164;27.786;2023-06-05T07:55:33;101057.81;;;23.87;35.18
63088;BME280;49173;43.164;27.786;2023-06-05T07:58:08;101050.69;;;23.76;34.72
63088;BME280;49173;43.164;27.786;2023-06-05T08:00:37;101051.22;;;23.80;36.91
63088;BME280;49173;43.164;27.786;2023-06-05T08:03:06;101049.06;;;23.83;37.15
63088;BME280;49173;43.164;27.786;2023-06-05T08:05:44;101056.69;;;23.90;37.51
63088;BME280;49173;43.164;27.786;2023-06-05T08:08:14;101062.84;;;23.92;34.00
63088;BME280;49173;43.164;27.786;2023-06-05T08:10:44;101044.88;;;23.79;34.00
63088;BME280;49173;43.164;27.786;2023-06-05T08:13:13;101056.78;;;23.70;33.90
63088;BME280;49173;43.164;27.786;2023-06-05T08:15:44;101046.22;;;23.75;33.59
63088;BME280;49173;43.164;27.786;2023-06-05T08:18:20;101052.91;;;23.91;36.71
63088;BME280;49173;43.164;27.786;2023-06-05T08:20:47;101054.72;;;24.00;38.75
63088;BME280;49173;43.164;27.786;2023-06-05T08:23:16;101037.50;;;24.07;38.94
63088;BME280;49173;43.164;27.786;2023-06-05T08:25:45;101041.66;;;24.11;39.50
63088;BME280;49173;43.164;27.786;2023-06-05T08:28:20;101044.69;;;24.08;40.08
63088;BME280;49173;43.164;27.786;2023-06-05T08:30:52;101038.34;;;24.08;40.85
63088;BME280;49173;43.164;27.786;2023-06-05T08:33:29;101045.34;;;24.20;39.21
63088;BME280;49173;43.164;27.786;2023-06-05T08:36:05;101050.91;;;24.10;37.94
63088;BME280;49173;43.164;27.786;2023-06-05T08:38:41;101060.63;;;24.05;37.40
63088;BME280;49173;43.164;27.786;2023-06-05T08:41:12;101061.22;;;23.99;36.55
63088;BME280;49173;43.164;27.786;2023-06-05T08:43:42;101051.72;;;23.93;36.79
63088;BME280;49173;43.164;27.786;2023-06-05T08:46:22;101065.16;;;23.96;38.83
63088;BME280;49173;43.164;27.786;2023-06-05T08:49:10;101053.50;;;24.12;38.85
63088;BME280;49173;43.164;27.786;2023-06-05T08:51:42;101058.28;;;24.28;37.86
63088;BME280;49173;43.164;27.786;2023-06-05T08:54:21;101059.25;;;24.36;36.91
63088;BME280;49173;43.164;27.786;2023-06-05T08:56:53;101054.47;;;24.38;36.46
63088;BME280;49173;43.164;27.786;2023-06-05T08:59:20;101055.47;;;24.37;36.78
63088;BME280;49173;43.164;27.786;2023-06-05T09:01:52;101051.19;;;24.35;34.89
63088;BME280;49173;43.164;27.786;2023-06-05T09:04:27;101058.38;;;24.36;37.27
63088;BME280;49173;43.164;27.786;2023-06-05T09:06:59;101057.53;;;24.35;36.35
63088;BME280;49173;43.164;27.786;2023-06-05T09:09:28;101054.63;;;24.37;36.22
63088;BME280;49173;43.164;27.786;2023-06-05T09:12:15;101064.34;;;24.49;38.91
63088;BME280;49173;43.164;27.786;2023-06-05T09:14:53;101058.75;;;24.59;37.77
63088;BME280;49173;43.164;27.786;2023-06-05T09:17:24;101043.78;;;24.71;38.02
63088;BME280;49173;43.164;27.786;2023-06-05T09:19:51;101060.06;;;24.73;38.17
63088;BME280;49173;43.164;27.786;2023-06-05T09:22:32;101053.41;;;24.75;36.21
63088;BME280;49173;43.164;27.786;2023-06-05T09:25:06;101042.50;;;24.65;36.59
63088;BME280;49173;43.164;27.786;2023-06-05T09:27:40;101049.72;;;24.66;39.20
63088;BME280;49173;43.164;27.786;2023-06-05T09:30:13;101051.94;;;24.63;35.42
63088;BME280;49173;43.164;27.786;2023-06-05T09:32:51;101053.94;;;24.53;35.88
63088;BME280;49173;43.164;27.786;2023-06-05T09:35:21;101044.50;;;24.55;36.63
63088;BME280;49173;43.164;27.786;2023-06-05T09:37:47;101056.50;;;24.54;37.03
63088;BME280;49173;43.164;27.786;2023-06-05T09:40:16;101058.47;;;24.62;37.38
63088;BME280;49173;43.164;27.786;2023-06-05T09:42:43;101057.72;;;24.78;37.03
63088;BME280;49173;43.164;27.786;2023-06-05T09:45:12;101062.81;;;24.90;36.87
63088;BME280;49173;43.164;27.786;2023-06-05T09:47:47;101067.66;;;24.97;35.30
63088;BME280;49173;43.164;27.786;2023-06-05T09:50:25;101063.16;;;25.13;37.17
63088;BME280;49173;43.164;27.786;2023-06-05T09:52:58;101057.88;;;25.20;33.78
63088;BME280;49173;43.164;27.786;2023-06-05T09:58:20;101064.41;;;25.19;36.27
63088;BME280;49173;43.164;27.786;2023-06-05T10:00:57;101052.94;;;25.24;35.38
63088;BME280;49173;43.164;27.786;2023-06-05T10:03:30;101056.75;;;25.31;34.81
63088;BME280;49173;43.164;27.786;2023-06-05T10:06:04;101065.56;;;25.42;34.15
63088;BME280;49173;43.164;27.786;2023-06-05T10:08:37;101055.97;;;25.46;33.82
63088;BME280;49173;43.164;27.786;2023-06-05T10:11:10;101052.69;;;25.43;34.12
63088;BME280;49173;43.164;27.786;2023-06-05T10:13:47;101043.09;;;25.47;33.16
63088;BME280;49173;43.164;27.786;2023-06-05T10:16:19;101052.06;;;25.57;33.48
63088;BME280;49173;43.164;27.786;2023-06-05T10:18:49;101046.72;;;25.56;34.01
63088;BME280;49173;43.164;27.786;2023-06-05T10:21:16;101045.69;;;25.57;33.56
63088;BME280;49173;43.164;27.786;2023-06-05T10:26:41;101040.22;;;25.65;33.02
63088;BME280;49173;43.164;27.786;2023-06-05T10:32:12;101044.31;;;25.87;33.02
63088;BME280;49173;43.164;27.786;2023-06-05T10:38:07;101060.28;;;25.83;32.13
63088;BME280;49173;43.164;27.786;2023-06-05T10:40:47;101053.06;;;25.82;32.36
63088;BME280;49173;43.164;27.786;2023-06-05T10:43:27;101053.91;;;25.83;32.11
63088;BME280;49173;43.164;27.786;2023-06-05T10:45:57;101045.50;;;25.84;32.59
63088;BME280;49173;43.164;27.786;2023-06-05T10:49:07;101044.84;;;25.90;31.68
63088;BME280;49173;43.164;27.786;2023-06-05T10:51:38;101040.03;;;25.92;31.56
63088;BME280;49173;43.164;27.786;2023-06-05T10:56:58;101030.88;;;25.84;31.26
63088;BME280;49173;43.164;27.786;2023-06-05T10:59:35;101029.34;;;25.81;31.69
63088;BME280;49173;43.164;27.786;2023-06-05T11:07:29;101017.31;;;25.82;33.54
63088;BME280;49173;43.164;27.786;2023-06-05T11:10:16;101010.28;;;25.88;31.62
63088;BME280;49173;43.164;27.786;2023-06-05T11:15:45;101036.94;;;25.95;32.44
63088;BME280;49173;43.164;27.786;2023-06-05T11:18:36;101031.25;;;25.89;31.03
63088;BME280;49173;43.164;27.786;2023-06-05T11:21:08;101028.31;;;25.82;32.70
63088;BME280;49173;43.164;27.786;2023-06-05T11:24:14;101035.16;;;25.78;33.42
63088;BME280;49173;43.164;27.786;2023-06-05T11:26:49;101041.97;;;25.66;32.43
63088;BME280;49173;43.164;27.786;2023-06-05T11:29:16;101030.63;;;25.69;32.31
63088;BME280;49173;43.164;27.786;2023-06-05T11:31:48;101041.38;;;25.80;33.22
63088;BME280;49173;43.164;27.786;2023-06-05T11:34:16;101035.16;;;25.78;31.72
63088;BME280;49173;43.164;27.786;2023-06-05T11:36:50;101033.13;;;25.80;31.12
63088;BME280;49173;43.164;27.786;2023-06-05T11:39:48;101024.44;;;25.67;30.55
63088;BME280;49173;43.164;27.786;2023-06-05T11:42:26;101028.38;;;25.64;30.55
63088;BME280;49173;43.164;27.786;2023-06-05T11:44:55;101020.50;;;25.69;30.51
63088;BME280;49173;43.164;27.786;2023-06-05T11:47:28;101021.06;;;25.73;32.11
63088;BME280;49173;43.164;27.786;2023-06-05T11:50:14;101015.16;;;25.68;31.91
63088;BME280;49173;43.164;27.786;2023-06-05T11:52:50;101009.97;;;25.57;33.11
63088;BME280;49173;43.164;27.786;2023-06-05T11:55:28;101013.09;;;25.62;34.23
63088;BME280;49173;43.164;27.786;2023-06-05T11:58:40;101021.34;;;25.62;33.62
63088;BME280;49173;43.164;27.786;2023-06-05T12:01:17;101029.78;;;25.68;34.18
63088;BME280;49173;43.164;27.786;2023-06-05T12:04:08;101020.72;;;25.76;34.36
63088;BME280;49173;43.164;27.786;2023-06-05T12:06:52;101020.63;;;25.94;33.56
63088;BME280;49173;43.164;27.786;2023-06-05T12:09:21;101026.44;;;25.99;32.99
63088;BME280;49173;43.164;27.786;2023-06-05T12:12:06;101034.53;;;26.00;33.46
63088;BME280;49173;43.164;27.786;2023-06-05T12:14:39;101030.97;;;26.08;33.21
63088;BME280;49173;43.164;27.786;2023-06-05T12:17:16;101034.03;;;26.13;34.67
63088;BME280;49173;43.164;27.786;2023-06-05T12:19:43;101034.72;;;26.07;33.55
63088;BME280;49173;43.164;27.786;2023-06-05T12:22:33;101038.66;;;25.96;35.15
63088;BME280;49173;43.164;27.786;2023-06-05T12:25:16;101032.63;;;25.93;35.22
63088;BME280;49173;43.164;27.786;2023-06-05T12:27:48;101041.00;;;25.75;34.59
63088;BME280;49173;43.164;27.786;2023-06-05T12:30:20;101035.44;;;25.67;34.18
63088;BME280;49173;43.164;27.786;2023-06-05T12:33:06;101038.47;;;25.56;35.04
63088;BME280;49173;43.164;27.786;2023-06-05T12:35:43;101039.91;;;25.68;35.96
63088;BME280;49173;43.164;27.786;2023-06-05T12:38:13;101035.72;;;25.82;35.42
63088;BME280;49173;43.164;27.786;2023-06-05T12:40:47;101035.53;;;25.83;35.75
63088;BME280;49173;43.164;27.786;2023-06-05T12:43:17;101035.91;;;25.88;35.11
63088;BME280;49173;43.164;27.786;2023-06-05T12:45:46;101024.72;;;25.90;35.85
63088;BME280;49173;43.164;27.786;2023-06-05T12:48:18;101027.31;;;25.91;34.21
63088;BME280;49173;43.164;27.786;2023-06-05T12:50:47;101025.59;;;25.98;33.42
63088;BME280;49173;43.164;27.786;2023-06-05T12:53:29;101037.25;;;25.92;33.64
63088;BME280;49173;43.164;27.786;2023-06-05T12:56:01;101039.50;;;25.81;33.41
63088;BME280;49173;43.164;27.786;2023-06-05T12:58:31;101033.78;;;25.74;33.67
63088;BME280;49173;43.164;27.786;2023-06-05T13:00:57;101028.50;;;25.81;33.08
63088;BME280;49173;43.164;27.786;2023-06-05T13:03:26;101029.16;;;25.74;32.90
63088;BME280;49173;43.164;27.786;2023-06-05T13:05:58;101033.84;;;25.90;33.71
63088;BME280;49173;43.164;27.786;2023-06-05T13:08:24;101021.50;;;26.02;32.75
63088;BME280;49173;43.164;27.786;2023-06-05T13:11:00;101029.75;;;26.02;32.10
63088;BME280;49173;43.164;27.786;2023-06-05T13:13:35;101015.63;;;25.97;32.60
63088;BME280;49173;43.164;27.786;2023-06-05T13:16:03;101017.50;;;25.81;32.88
63088;BME280;49173;43.164;27.786;2023-06-05T13:18:41;101013.81;;;25.72;32.76
63088;BME280;49173;43.164;27.786;2023-06-05T13:21:13;101014.13;;;25.69;33.35
63088;BME280;49173;43.164;27.786;2023-06-05T13:23:39;101019.03;;;25.83;33.89
63088;BME280;49173;43.164;27.786;2023-06-05T13:26:17;101009.91;;;25.83;34.94
63088;BME280;49173;43.164;27.786;2023-06-05T13:28:51;101010.88;;;25.65;32.92
63088;BME280;49173;43.164;27.786;2023-06-05T13:31:20;101003.28;;;25.59;33.04